Time;durP1;ratioP1;P1;durP2;ratioP2;P2;SDS_P1;SDS_P2;PMS_P1;PMS_P2;Temp;Humidity;BMP_temperature;BMP_pressure;BME280_temperature;BME280_humidity;BME280_pressure;Samples;Min_cycle;Max_cycle;Signal;HPM_P1;HPM_P2
2023/10/16 00:00:29;;;;;;;2.47;1.70;;;;;;;14.46;58.92;93175.19;530607;27;833;-42
2023/10/16 00:00:40;;;;;;;2.97;1.75;;;;;;;14.47;58.95;93176.66;530330;27;1546;-42
2023/10/16 00:00:56;;;;;;;3.03;2.00;;;;;;;14.45;59.01;93171.69;530529;27;861;-42
2023/10/16 00:01:11;;;;;;;2.30;1.90;;;;;;;14.48;59.16;93178.13;530588;27;796;-42
2023/10/16 00:01:26;;;;;;;1.93;1.70;;;;;;;14.47;59.04;93171.84;530502;27;947;-44
2023/10/16 00:01:42;;;;;;;1.75;1.65;;;;;;;14.46;59.07;93175.94;530551;27;897;-41
2023/10/16 00:01:57;;;;;;;1.70;1.60;;;;;;;14.43;58.99;93175.03;530543;27;863;-42
2023/10/16 00:02:13;;;;;;;1.67;1.50;;;;;;;14.47;59.11;93176.66;530633;27;1087;-42
2023/10/16 00:02:29;;;;;;;1.70;1.60;;;;;;;14.47;59.06;93174.59;530636;27;867;-42
2023/10/16 00:02:45;;;;;;;1.80;1.70;;;;;;;14.49;59.02;93174.75;530557;27;876;-42
2023/10/16 00:03:00;;;;;;;2.72;1.80;;;;;;;14.51;59.05;93174.19;530526;27;880;-46
2023/10/16 00:03:17;;;;;;;3.90;1.77;;;;;;;14.49;59.00;93177.53;530519;27;1521;-43
2023/10/16 00:03:33;;;;;;;3.75;1.80;;;;;;;14.37;59.01;93162.75;530641;27;841;-44
2023/10/16 00:03:49;;;;;;;2.60;1.70;;;;;;;14.41;59.11;93179.72;530479;27;918;-43
2023/10/16 00:04:05;;;;;;;2.05;1.85;;;;;;;14.35;59.25;93180.00;530502;27;821;-43
2023/10/16 00:04:21;;;;;;;1.90;1.70;;;;;;;14.26;59.06;93172.34;530591;27;801;-43
2023/10/16 00:04:37;;;;;;;2.25;1.60;;;;;;;14.32;59.29;93180.41;530536;27;824;-43
2023/10/16 00:04:53;;;;;;;3.53;2.00;;;;;;;14.30;59.33;93172.66;530616;27;892;-44
2023/10/16 00:05:08;;;;;;;2.70;1.87;;;;;;;14.31;59.22;93181.75;530505;27;852;-43
2023/10/16 00:05:24;;;;;;;1.60;1.50;;;;;;;14.28;59.61;93182.84;530601;27;820;-44
2023/10/16 00:05:51;;;;;;;1.77;1.43;;;;;;;14.26;59.64;93179.94;530585;27;860;-43
2023/10/16 00:06:07;;;;;;;2.35;1.50;;;;;;;14.26;59.53;93182.72;530476;27;931;-42
2023/10/16 00:06:22;;;;;;;2.37;1.60;;;;;;;14.26;59.53;93180.66;530588;27;1051;-43
2023/10/16 00:06:37;;;;;;;2.70;1.60;;;;;;;14.24;59.71;93183.28;530499;27;853;-44
2023/10/16 00:06:53;;;;;;;1.70;1.30;;;;;;;14.27;59.52;93186.97;530670;27;778;-49
2023/10/16 00:07:08;;;;;;;1.50;1.40;;;;;;;14.26;59.62;93191.78;530493;27;861;-44
2023/10/16 00:07:27;;;;;;;1.60;1.50;;;;;;;14.23;59.58;93187.38;530558;27;871;-45
2023/10/16 00:07:43;;;;;;;1.45;1.35;;;;;;;14.23;59.55;93192.91;530630;27;820;-42
2023/10/16 00:08:08;;;;;;;1.52;1.23;;;;;;;14.12;59.40;93164.97;530538;27;880;-43
2023/10/16 00:08:23;;;;;;;1.30;1.20;;;;;;;14.22;59.66;93182.41;530621;27;895;-45
2023/10/16 00:08:48;;;;;;;1.90;1.20;;;;;;;14.21;59.22;93186.47;530565;27;824;-46
2023/10/16 00:09:14;;;;;;;1.27;1.15;;;;;;;14.15;59.66;93194.34;530528;27;865;-45
2023/10/16 00:09:29;;;;;;;4.15;1.35;;;;;;;13.96;60.09;93197.78;530561;27;817;-44
2023/10/16 00:09:44;;;;;;;3.75;1.40;;;;;;;13.85;60.34;93201.09;530465;27;896;-43
2023/10/16 00:10:11;;;;;;;3.30;1.40;;;;;;;13.78;60.66;93195.63;530537;27;1665;-44
2023/10/16 00:10:26;;;;;;;1.30;1.20;;;;;;;13.74;60.68;93198.09;530493;27;943;-44
2023/10/16 00:10:43;;;;;;;2.63;1.30;;;;;;;13.70;60.88;93201.28;530674;27;808;-45
2023/10/16 00:11:01;;;;;;;2.38;1.20;;;;;;;13.71;60.95;93196.47;530366;27;913;-44
2023/10/16 00:11:18;;;;;;;1.13;1.02;;;;;;;13.48;61.04;93171.81;530473;27;924;-44
2023/10/16 00:11:37;;;;;;;1.48;1.30;;;;;;;13.56;61.14;93200.16;530602;27;832;-45
2023/10/16 00:11:53;;;;;;;2.47;1.40;;;;;;;13.53;61.14;93193.75;530554;27;842;-43
2023/10/16 00:12:08;;;;;;;1.60;1.23;;;;;;;13.59;61.08;93194.22;530454;27;936;-42
2023/10/16 00:12:29;;;;;;;1.43;1.33;;;;;;;13.61;61.21;93196.41;530558;27;821;-42
2023/10/16 00:12:44;;;;;;;1.25;1.20;;;;;;;13.60;61.10;93198.44;530435;27;1949;-43
2023/10/16 00:13:04;;;;;;;0.95;0.95;;;;;;;13.55;61.14;93185.59;530551;27;848;-43
2023/10/16 00:13:26;;;;;;;0.90;0.90;;;;;;;13.60;61.08;93200.47;530586;27;858;-45
2023/10/16 00:13:42;;;;;;;1.30;1.20;;;;;;;13.59;61.21;93197.00;530595;27;1610;-44
2023/10/16 00:13:57;;;;;;;1.67;1.33;;;;;;;13.60;61.06;93186.59;530570;27;785;-42
2023/10/16 00:14:23;;;;;;;1.80;1.33;;;;;;;13.52;61.30;93183.94;530480;27;861;-42
2023/10/16 00:14:38;;;;;;;1.92;1.23;;;;;;;13.49;61.34;93195.47;530479;27;852;-43
2023/10/16 00:14:54;;;;;;;4.55;1.35;;;;;;;13.45;61.42;93195.13;530565;27;1074;-43
2023/10/16 00:15:09;;;;;;;4.10;1.50;;;;;;;13.49;61.22;93193.41;530510;27;903;-45
2023/10/16 00:15:26;;;;;;;2.00;1.23;;;;;;;13.45;61.62;93197.91;530458;27;935;-45
2023/10/16 00:15:49;;;;;;;1.75;1.13;;;;;;;13.37;61.26;93183.41;530629;27;901;-45
2023/10/16 00:16:04;;;;;;;1.50;1.40;;;;;;;13.38;61.48;93187.66;530421;27;965;-45
2023/10/16 00:16:21;;;;;;;1.40;1.30;;;;;;;13.36;61.57;93196.53;530593;27;801;-47
2023/10/16 00:16:37;;;;;;;2.05;1.27;;;;;;;13.36;61.65;93199.31;530516;27;1156;-44
2023/10/16 00:16:52;;;;;;;2.70;1.40;;;;;;;13.31;61.64;93200.31;530623;27;891;-46
2023/10/16 00:17:13;;;;;;;2.77;1.30;;;;;;;13.27;61.99;93190.94;530496;27;840;-44
2023/10/16 00:17:31;;;;;;;1.75;1.08;;;;;;;13.14;62.29;93194.78;530419;27;836;-42
2023/10/16 00:17:49;;;;;;;1.52;0.88;;;;;;;13.13;62.01;93198.84;530477;27;900;-44
2023/10/16 00:18:09;;;;;;;0.95;0.95;;;;;;;13.11;61.98;93195.16;530503;27;928;-45
2023/10/16 00:18:26;;;;;;;1.38;1.33;;;;;;;13.15;62.01;93199.00;528150;28;1409;-45
2023/10/16 00:18:42;;;;;;;1.40;1.30;;;;;;;13.13;62.06;93193.28;528394;28;833;-43
2023/10/16 00:18:59;;;;;;;1.10;1.10;;;;;;;13.08;62.22;93202.59;528188;28;939;-45
2023/10/16 00:19:15;;;;;;;1.10;1.10;;;;;;;13.04;62.23;93195.97;528306;28;845;-45
2023/10/16 00:19:33;;;;;;;1.20;1.10;;;;;;;13.06;62.51;93202.41;528256;28;967;-45
2023/10/16 00:19:50;;;;;;;1.10;1.00;;;;;;;13.06;62.51;93193.41;528194;28;904;-43
2023/10/16 00:20:16;;;;;;;1.05;1.00;;;;;;;13.07;62.47;93201.13;528173;28;944;-43
2023/10/16 00:20:31;;;;;;;1.40;1.27;;;;;;;13.09;62.15;93204.06;530541;27;892;-43
2023/10/16 00:20:47;;;;;;;1.30;1.20;;;;;;;12.83;62.42;93171.44;530494;27;813;-43
2023/10/16 00:21:06;;;;;;;1.30;1.20;;;;;;;13.10;62.27;93205.53;530514;27;888;-45
2023/10/16 00:21:23;;;;;;;1.20;1.20;;;;;;;13.08;62.48;93208.13;530544;27;888;-44
2023/10/16 00:21:43;;;;;;;1.10;1.10;;;;;;;13.04;62.31;93193.22;530552;27;864;-44
2023/10/16 00:22:00;;;;;;;0.80;0.80;;;;;;;13.12;62.18;93210.50;530440;27;959;-46
2023/10/16 00:22:16;;;;;;;1.95;0.98;;;;;;;13.08;62.14;93213.66;530524;27;841;-46
2023/10/16 00:22:31;;;;;;;2.40;1.10;;;;;;;13.09;62.42;93204.06;530512;27;1127;-43
2023/10/16 00:22:47;;;;;;;1.23;1.15;;;;;;;13.08;62.49;93212.97;530492;27;845;-44
2023/10/16 00:23:08;;;;;;;1.60;1.50;;;;;;;12.99;62.36;93199.72;530557;27;865;-42
2023/10/16 00:23:30;;;;;;;1.30;1.20;;;;;;;13.06;62.28;93210.03;530537;27;920;-44
2023/10/16 00:23:46;;;;;;;1.20;1.20;;;;;;;13.09;62.34;93209.59;528516;28;1212;-42
2023/10/16 00:24:01;;;;;;;1.40;1.30;;;;;;;13.10;62.15;93213.84;527821;28;1235;-45
2023/10/16 00:24:16;;;;;;;1.40;1.13;;;;;;;13.11;62.15;93215.31;528665;27;1315;-45
2023/10/16 00:24:32;;;;;;;5.20;1.10;;;;;;;13.11;62.30;93215.31;530570;27;880;-43
2023/10/16 00:24:48;;;;;;;5.20;1.20;;;;;;;13.04;62.19;93204.28;530520;27;875;-45
2023/10/16 00:25:03;;;;;;;1.33;1.30;;;;;;;13.11;62.06;93209.75;530613;27;797;-44
2023/10/16 00:25:24;;;;;;;1.83;1.40;;;;;;;13.06;62.14;93205.19;530516;27;788;-46
2023/10/16 00:25:40;;;;;;;3.63;1.55;;;;;;;13.00;62.32;93217.78;530569;27;875;-42
2023/10/16 00:25:56;;;;;;;1.40;1.30;;;;;;;12.98;62.50;93204.53;530466;27;1597;-45
2023/10/16 00:26:16;;;;;;;1.23;1.13;;;;;;;12.98;62.28;93204.53;530356;27;1383;-46
2023/10/16 00:26:31;;;;;;;1.30;1.20;;;;;;;12.93;62.52;93209.00;530479;27;955;-44
2023/10/16 00:26:49;;;;;;;1.43;1.33;;;;;;;12.91;62.42;93205.31;530499;27;867;-46
2023/10/16 00:27:04;;;;;;;1.45;1.35;;;;;;;12.91;62.44;93205.31;529391;27;1037;-45
2023/10/16 00:27:21;;;;;;;1.10;1.00;;;;;;;12.92;62.68;93210.31;528375;28;960;-45
2023/10/16 00:27:38;;;;;;;2.03;1.48;;;;;;;12.94;62.57;93204.19;528361;28;843;-46
2023/10/16 00:27:53;;;;;;;2.08;1.60;;;;;;;12.95;62.36;93205.66;528470;28;893;-45
2023/10/16 00:28:10;;;;;;;1.40;1.30;;;;;;;13.00;62.45;93206.72;528264;28;905;-47
2023/10/16 00:28:26;;;;;;;2.35;1.40;;;;;;;13.00;62.35;93199.13;528411;28;884;-43
2023/10/16 00:28:45;;;;;;;2.83;1.30;;;;;;;13.04;62.30;93202.22;528432;28;857;-44
2023/10/16 00:29:24;;;;;;;1.88;1.10;;;;;;;13.03;61.99;93211.88;528390;28;896;-42
2023/10/16 00:29:36;;;;;;;0.90;0.90;;;;;;;13.01;62.17;93208.94;527621;28;1570;-46
2023/10/16 00:29:52;;;;;;;1.25;1.10;;;;;;;12.79;62.26;93179.41;528427;28;884;-46
2023/10/16 00:30:08;;;;;;;1.80;1.27;;;;;;;12.97;61.99;93205.84;528381;28;899;-44
2023/10/16 00:30:23;;;;;;;1.58;1.30;;;;;;;12.98;62.14;93212.84;528409;28;802;-45
2023/10/16 00:30:40;;;;;;;3.55;1.30;;;;;;;12.97;62.36;93210.63;528356;28;908;-44
2023/10/16 00:30:55;;;;;;;3.25;1.20;;;;;;;12.86;62.30;93190.41;528395;28;822;-46
2023/10/16 00:31:20;;;;;;;1.07;0.97;;;;;;;12.90;62.34;93207.38;528334;28;809;-46
2023/10/16 00:31:42;;;;;;;1.10;1.00;;;;;;;12.89;62.44;93200.38;528398;28;973;-44
2023/10/16 00:31:59;;;;;;;1.13;1.02;;;;;;;12.92;62.45;93209.56;528345;28;923;-43
2023/10/16 00:32:16;;;;;;;1.20;1.10;;;;;;;12.93;62.32;93217.31;528359;28;865;-44
2023/10/16 00:32:36;;;;;;;1.13;1.08;;;;;;;12.94;62.42;93209.75;528424;28;1705;-44
2023/10/16 00:32:52;;;;;;;1.33;1.23;;;;;;;12.94;62.17;93212.50;528367;28;1975;-42
2023/10/16 00:33:10;;;;;;;1.40;1.30;;;;;;;12.93;62.17;93211.03;528311;28;1030;-42
2023/10/16 00:33:26;;;;;;;1.30;1.20;;;;;;;12.90;62.48;93198.34;528103;28;880;-44
2023/10/16 00:33:41;;;;;;;1.42;1.33;;;;;;;12.94;62.31;93212.50;528085;28;876;-43
2023/10/16 00:33:59;;;;;;;1.73;1.30;;;;;;;12.95;62.02;93214.69;528215;28;904;-43
2023/10/16 00:34:19;;;;;;;1.67;1.17;;;;;;;12.93;62.35;93213.81;528366;28;888;-43
2023/10/16 00:34:35;;;;;;;1.20;1.10;;;;;;;12.90;62.33;93214.97;528367;28;1147;-42
2023/10/16 00:34:52;;;;;;;1.45;1.30;;;;;;;12.88;62.36;93214.78;528473;28;809;-43
2023/10/16 00:35:08;;;;;;;1.38;1.27;;;;;;;12.80;62.51;93205.81;528346;28;876;-42
2023/10/16 00:35:24;;;;;;;1.38;1.27;;;;;;;12.88;62.41;93220.34;528368;28;876;-42
2023/10/16 00:35:41;;;;;;;1.40;1.30;;;;;;;12.88;62.55;93217.56;528397;28;875;-45
2023/10/16 00:35:56;;;;;;;1.30;1.25;;;;;;;12.88;62.66;93217.56;528294;28;932;-44
2023/10/16 00:36:12;;;;;;;1.23;1.17;;;;;;;12.89;62.32;93219.75;528344;28;869;-44
2023/10/16 00:36:27;;;;;;;1.40;1.30;;;;;;;12.90;62.60;93214.97;528370;28;777;-43
2023/10/16 00:36:44;;;;;;;1.30;1.20;;;;;;;12.94;62.17;93215.28;528410;28;848;-42
2023/10/16 00:37:01;;;;;;;1.15;1.13;;;;;;;12.95;62.47;93220.25;528390;28;1068;-42
2023/10/16 00:37:20;;;;;;;1.23;1.20;;;;;;;12.96;62.40;93212.66;528334;28;877;-45
2023/10/16 00:37:35;;;;;;;1.33;1.23;;;;;;;12.98;62.14;93214.88;528343;28;869;-44
2023/10/16 00:37:50;;;;;;;1.38;1.27;;;;;;;12.97;62.25;93216.94;528291;28;880;-43
2023/10/16 00:38:12;;;;;;;1.40;1.30;;;;;;;12.98;62.02;93206.56;528388;28;841;-45
2023/10/16 00:38:35;;;;;;;1.30;1.20;;;;;;;12.96;62.14;93207.13;528335;28;1076;-44
2023/10/16 00:38:51;;;;;;;1.17;1.17;;;;;;;12.98;62.03;93223.19;528311;28;914;-42
2023/10/16 00:39:12;;;;;;;0.93;0.93;;;;;;;12.97;61.85;93210.63;528270;28;1054;-42
2023/10/16 00:39:30;;;;;;;1.13;1.02;;;;;;;12.75;61.77;93177.06;528267;28;900;-44
2023/10/16 00:39:48;;;;;;;1.20;1.10;;;;;;;12.90;62.19;93206.66;528349;28;869;-46
2023/10/16 00:40:10;;;;;;;1.30;1.20;;;;;;;12.83;62.12;93193.59;528355;28;963;-46
2023/10/16 00:40:31;;;;;;;1.10;1.10;;;;;;;12.91;62.20;93214.38;528293;28;854;-46
2023/10/16 00:41:05;;;;;;;1.33;1.23;;;;;;;12.88;61.90;93203.72;528349;28;899;-45
2023/10/16 00:41:24;;;;;;;1.05;0.98;;;;;;;12.81;62.20;93199.72;528350;28;886;-43
2023/10/16 00:41:40;;;;;;;0.95;0.95;;;;;;;12.91;62.26;93211.59;526073;28;910;-44
2023/10/16 00:41:57;;;;;;;0.95;0.95;;;;;;;12.93;62.02;93203.47;526053;28;1029;-44
2023/10/16 00:42:13;;;;;;;1.25;1.25;;;;;;;12.94;61.96;93209.75;526177;28;876;-43
2023/10/16 00:42:29;;;;;;;1.38;1.30;;;;;;;12.94;61.74;93210.47;526134;28;817;-45
2023/10/16 00:42:44;;;;;;;1.27;1.17;;;;;;;12.84;61.91;93204.09;526075;28;2493;-46
2023/10/16 00:43:11;;;;;;;1.60;1.20;;;;;;;12.92;61.86;93209.56;528276;28;805;-43
2023/10/16 00:43:28;;;;;;;1.95;1.00;;;;;;;12.82;61.98;93203.22;528874;27;879;-44
2023/10/16 00:43:44;;;;;;;1.08;1.00;;;;;;;12.91;61.65;93210.88;530465;27;958;-43
2023/10/16 00:44:00;;;;;;;1.15;1.10;;;;;;;12.86;61.96;93211.88;530505;27;844;-43
2023/10/16 00:44:21;;;;;;;1.20;1.10;;;;;;;12.85;61.85;93202.81;530510;27;851;-43
2023/10/16 00:44:38;;;;;;;1.38;1.27;;;;;;;12.88;61.67;93210.00;530471;27;905;-46
2023/10/16 00:44:56;;;;;;;1.50;1.40;;;;;;;12.81;61.89;93210.06;530552;27;812;-43
2023/10/16 00:45:12;;;;;;;1.35;1.25;;;;;;;12.79;61.91;93207.88;530530;27;907;-45
2023/10/16 00:45:27;;;;;;;1.50;1.40;;;;;;;12.68;62.17;93199.28;530395;27;816;-45
2023/10/16 00:45:46;;;;;;;1.30;1.20;;;;;;;12.80;62.16;93216.88;530582;27;794;-43
2023/10/16 00:46:10;;;;;;;2.60;1.13;;;;;;;12.82;62.13;93219.84;530529;27;804;-42
2023/10/16 00:46:32;;;;;;;1.70;1.05;;;;;;;12.72;61.95;93203.13;530403;27;936;-43
2023/10/16 00:46:50;;;;;;;1.10;1.05;;;;;;;12.87;61.84;93221.63;530404;27;864;-43
2023/10/16 00:47:09;;;;;;;1.30;1.20;;;;;;;12.90;61.92;93217.72;530473;27;880;-47
2023/10/16 00:47:24;;;;;;;1.60;1.30;;;;;;;12.85;61.93;93213.88;530422;27;1209;-45
2023/10/16 00:47:40;;;;;;;1.47;1.33;;;;;;;12.82;62.06;93217.06;530425;27;932;-46
2023/10/16 00:47:55;;;;;;;1.60;1.23;;;;;;;12.75;62.03;93221.38;528213;28;817;-46
2023/10/16 00:48:12;;;;;;;1.50;1.20;;;;;;;12.78;61.93;93222.25;528280;28;865;-43
2023/10/16 00:48:28;;;;;;;1.30;1.20;;;;;;;12.76;62.07;93225.59;528116;28;1293;-45
2023/10/16 00:48:43;;;;;;;1.33;1.15;;;;;;;12.79;62.12;93227.25;528257;28;931;-46
2023/10/16 00:48:59;;;;;;;1.60;1.00;;;;;;;12.67;61.96;93209.63;528252;28;839;-45
2023/10/16 00:49:15;;;;;;;1.73;1.10;;;;;;;12.68;62.12;93207.59;528158;28;1161;-42
2023/10/16 00:49:38;;;;;;;1.10;1.10;;;;;;;12.83;61.90;93232.38;526177;28;794;-43
2023/10/16 00:49:54;;;;;;;1.60;1.25;;;;;;;12.83;61.74;93235.16;527892;28;1661;-42
2023/10/16 00:50:12;;;;;;;1.70;1.30;;;;;;;12.74;61.98;93230.25;526001;28;1042;-44
2023/10/16 00:50:27;;;;;;;1.17;1.15;;;;;;;12.52;62.00;93198.69;526107;28;821;-44
2023/10/16 00:50:48;;;;;;;1.23;1.13;;;;;;;12.74;62.07;93250.38;526136;28;1016;-44
2023/10/16 00:51:09;;;;;;;2.53;1.15;;;;;;;12.75;61.83;93238.00;526066;28;876;-45
2023/10/16 00:51:25;;;;;;;2.85;1.20;;;;;;;12.71;62.02;93234.16;527204;28;1762;-45
2023/10/16 00:51:41;;;;;;;1.27;1.07;;;;;;;12.69;61.98;93240.25;528230;28;818;-45
2023/10/16 00:51:56;;;;;;;1.55;1.10;;;;;;;12.71;62.08;93256.31;528426;28;813;-43
2023/10/16 00:52:14;;;;;;;1.30;1.20;;;;;;;12.72;62.02;93249.47;528199;28;865;-46
2023/10/16 00:52:30;;;;;;;1.38;1.27;;;;;;;12.71;61.92;93259.81;528261;28;872;-43
2023/10/16 00:52:46;;;;;;;1.20;1.20;;;;;;;12.71;61.91;93254.28;528119;28;1989;-43
2023/10/16 00:53:01;;;;;;;1.10;1.10;;;;;;;12.73;61.93;93245.41;528267;28;832;-43
2023/10/16 00:53:23;;;;;;;3.60;1.25;;;;;;;12.73;61.88;93248.91;528214;28;820;-45
2023/10/16 00:53:41;;;;;;;3.38;1.40;;;;;;;12.60;62.15;93249.22;528142;28;1124;-42
2023/10/16 00:53:56;;;;;;;7.35;2.38;;;;;;;12.56;62.14;93250.91;528219;28;860;-43
2023/10/16 00:54:29;;;;;;;8.98;2.33;;;;;;;12.54;62.25;93254.25;528205;28;920;-44
2023/10/16 00:54:46;;;;;;;14.82;2.35;;;;;;;12.47;62.18;93234.94;528247;28;936;-43
2023/10/16 00:55:02;;;;;;;17.20;2.50;;;;;;;12.38;62.39;93238.31;526191;28;891;-44
2023/10/16 00:55:20;;;;;;;4.40;1.98;;;;;;;12.30;62.59;93238.38;526053;28;878;-42
2023/10/16 00:55:35;;;;;;;2.13;1.48;;;;;;;12.26;63.02;93257.41;523943;28;928;-42
2023/10/16 00:55:51;;;;;;;1.47;1.37;;;;;;;12.22;62.78;93262.59;525088;28;1240;-45
2023/10/16 00:56:09;;;;;;;2.92;1.52;;;;;;;12.18;63.12;93256.72;526026;28;888;-43
2023/10/16 00:56:27;;;;;;;4.20;1.50;;;;;;;12.18;63.09;93256.72;526088;28;861;-44
2023/10/16 00:56:47;;;;;;;2.00;1.40;;;;;;;12.24;63.25;93248.19;526117;28;901;-43
2023/10/16 00:57:07;;;;;;;3.30;1.42;;;;;;;12.19;63.00;93250.63;526061;28;840;-43
2023/10/16 00:57:27;;;;;;;1.30;1.20;;;;;;;12.13;63.04;93241.81;526709;28;842;-43
2023/10/16 00:57:43;;;;;;;3.85;1.35;;;;;;;12.15;63.37;93255.06;526130;28;805;-43
2023/10/16 00:58:00;;;;;;;4.13;1.30;;;;;;;12.05;63.48;93232.84;523920;28;917;-43
2023/10/16 00:58:16;;;;;;;1.88;1.20;;;;;;;12.18;63.33;93249.16;523998;28;829;-44
2023/10/16 00:58:32;;;;;;;3.20;1.33;;;;;;;12.15;63.39;93257.84;522806;28;858;-46
2023/10/16 00:58:48;;;;;;;4.22;1.30;;;;;;;12.18;63.02;93251.19;523938;28;893;-45
2023/10/16 00:59:04;;;;;;;2.55;1.23;;;;;;;12.16;63.25;93262.09;523960;28;893;-45
2023/10/16 00:59:23;;;;;;;1.60;1.50;;;;;;;12.16;62.99;93256.56;523987;28;857;-44
2023/10/16 00:59:39;;;;;;;1.55;1.38;;;;;;;12.14;63.08;93256.38;526009;28;889;-43
2023/10/16 00:59:54;;;;;;;2.10;1.27;;;;;;;12.07;63.50;93257.91;524789;28;1133;-43
2023/10/16 01:00:12;;;;;;;1.83;1.13;;;;;;;12.01;63.53;93260.16;523978;28;877;-43
2023/10/16 01:00:28;;;;;;;2.95;1.17;;;;;;;12.04;63.67;93261.78;525370;28;1216;-42
2023/10/16 01:00:46;;;;;;;3.37;1.23;;;;;;;12.07;63.25;93257.91;526168;28;845;-45
2023/10/16 01:01:09;;;;;;;1.38;1.10;;;;;;;12.12;63.43;93262.50;528144;28;896;-45
2023/10/16 01:01:25;;;;;;;1.30;1.17;;;;;;;12.16;63.45;93256.56;528334;28;881;-45
2023/10/16 01:01:43;;;;;;;1.20;1.10;;;;;;;12.13;63.30;93255.66;528319;28;934;-43
2023/10/16 01:02:32;;;;;;;1.20;1.10;;;;;;;12.12;62.92;93259.72;528282;28;913;-47
2023/10/16 01:02:40;;;;;;;1.10;1.00;;;;;;;12.07;63.24;93254.41;525045;28;1385;-45
2023/10/16 01:02:56;;;;;;;1.02;0.93;;;;;;;12.04;63.56;93258.31;528317;28;832;-45
2023/10/16 01:03:12;;;;;;;1.00;1.00;;;;;;;11.82;63.31;93231.50;528296;28;885;-45
2023/10/16 01:03:31;;;;;;;1.20;1.10;;;;;;;12.03;63.25;93260.34;528251;28;889;-45
2023/10/16 01:03:48;;;;;;;1.20;1.10;;;;;;;12.04;63.15;93258.31;528397;28;864;-44
2023/10/16 01:04:04;;;;;;;2.33;0.90;;;;;;;12.03;63.16;93259.59;526016;28;922;-44
2023/10/16 01:04:20;;;;;;;4.80;1.23;;;;;;;12.02;63.14;93258.09;526053;28;865;-43
2023/10/16 01:04:36;;;;;;;2.80;1.50;;;;;;;11.99;63.66;93253.72;526103;28;848;-43
2023/10/16 01:04:52;;;;;;;1.20;1.20;;;;;;;12.00;63.57;93263.47;526096;28;1183;-45
2023/10/16 01:05:08;;;;;;;1.10;1.10;;;;;;;11.96;63.63;93266.63;526079;28;836;-43
2023/10/16 01:05:27;;;;;;;0.93;0.93;;;;;;;11.99;63.39;93260.00;526111;28;892;-43
2023/10/16 01:05:49;;;;;;;1.00;0.95;;;;;;;12.00;63.54;93261.44;526053;28;979;-45
2023/10/16 01:06:09;;;;;;;1.58;1.10;;;;;;;11.87;63.40;93252.66;526000;28;892;-44
2023/10/16 01:06:36;;;;;;;1.00;0.88;;;;;;;11.96;63.17;93263.88;526071;28;872;-45
2023/10/16 01:06:51;;;;;;;1.00;0.90;;;;;;;12.04;63.15;93263.84;526130;28;856;-45
2023/10/16 01:07:08;;;;;;;1.30;1.13;;;;;;;12.00;62.89;93255.19;526012;28;845;-44
2023/10/16 01:07:24;;;;;;;1.40;1.20;;;;;;;12.03;62.89;93259.59;526079;28;975;-44
2023/10/16 01:07:40;;;;;;;1.25;1.08;;;;;;;11.92;63.03;93244.16;526143;28;789;-45
2023/10/16 01:07:55;;;;;;;3.30;1.10;;;;;;;12.02;62.93;93258.84;527325;28;801;-46
2023/10/16 01:08:11;;;;;;;2.97;1.00;;;;;;;12.02;63.09;93264.38;528191;28;1004;-44
2023/10/16 01:08:26;;;;;;;2.30;0.80;;;;;;;12.00;62.99;93266.97;528356;28;845;-45
2023/10/16 01:08:51;;;;;;;2.30;0.73;;;;;;;12.04;62.81;93263.84;528371;28;888;-48
2023/10/16 01:09:12;;;;;;;0.90;0.90;;;;;;;11.99;62.84;93273.09;528268;28;849;-44
2023/10/16 01:09:33;;;;;;;1.00;1.00;;;;;;;11.84;63.05;93254.56;528278;28;868;-46
2023/10/16 01:09:52;;;;;;;1.02;1.02;;;;;;;11.94;63.05;93268.50;528232;28;873;-44
2023/10/16 01:10:10;;;;;;;1.35;1.00;;;;;;;11.93;63.48;93267.75;528204;28;865;-43
2023/10/16 01:10:25;;;;;;;5.22;1.00;;;;;;;11.83;63.31;93264.13;528321;28;818;-44
2023/10/16 01:10:41;;;;;;;3.90;1.10;;;;;;;11.85;63.66;93266.31;528344;28;802;-45
2023/10/16 01:10:59;;;;;;;1.10;1.00;;;;;;;11.82;63.27;93262.69;528244;28;905;-46
2023/10/16 01:11:15;;;;;;;0.80;0.80;;;;;;;11.81;63.46;93263.22;528251;28;862;-44
2023/10/16 01:11:30;;;;;;;0.80;0.80;;;;;;;11.82;63.25;93267.47;528360;28;1069;-46
2023/10/16 01:11:45;;;;;;;1.67;1.00;;;;;;;11.83;63.52;93263.38;528201;28;881;-44
2023/10/16 01:12:11;;;;;;;5.97;1.20;;;;;;;11.83;63.36;93263.38;528278;28;860;-44
2023/10/16 01:12:26;;;;;;;2.13;1.10;;;;;;;11.83;63.43;93258.59;528267;28;956;-44
2023/10/16 01:12:54;;;;;;;0.90;0.90;;;;;;;11.83;63.58;93261.38;528208;28;1973;-43
2023/10/16 01:13:13;;;;;;;0.95;0.95;;;;;;;11.81;63.13;93258.44;528266;28;905;-43
2023/10/16 01:13:28;;;;;;;0.93;0.93;;;;;;;11.84;63.13;93259.34;528242;28;877;-45
2023/10/16 01:13:47;;;;;;;1.20;1.00;;;;;;;11.82;63.21;93257.16;528392;28;844;-45
2023/10/16 01:14:03;;;;;;;1.48;0.93;;;;;;;11.82;63.34;93273.75;528258;28;889;-45
2023/10/16 01:14:18;;;;;;;1.85;0.90;;;;;;;11.85;63.18;93267.06;528305;28;889;-44
2023/10/16 01:14:37;;;;;;;1.80;1.40;;;;;;;11.87;63.20;93272.03;528356;28;881;-47
2023/10/16 01:14:53;;;;;;;1.52;1.42;;;;;;;11.85;63.18;93269.09;528366;28;891;-45
2023/10/16 01:15:09;;;;;;;0.95;0.95;;;;;;;11.83;63.41;93266.91;528300;28;836;-43
2023/10/16 01:15:25;;;;;;;0.77;0.77;;;;;;;11.86;63.27;93268.56;526060;28;789;-43
2023/10/16 01:15:46;;;;;;;0.90;0.88;;;;;;;11.80;63.52;93265.25;526024;28;873;-45
2023/10/16 01:16:01;;;;;;;1.00;0.90;;;;;;;11.78;63.45;93269.88;526019;28;1496;-45
2023/10/16 01:16:18;;;;;;;0.90;0.90;;;;;;;11.72;63.35;93258.28;526038;28;841;-43
2023/10/16 01:16:33;;;;;;;0.98;0.98;;;;;;;11.71;63.25;93278.94;523952;28;897;-42
2023/10/16 01:16:50;;;;;;;2.40;1.00;;;;;;;11.65;63.49;93270.09;523871;28;1576;-46
2023/10/16 01:17:09;;;;;;;2.80;1.13;;;;;;;11.73;63.37;93279.13;523967;28;853;-43
2023/10/16 01:17:32;;;;;;;1.60;1.50;;;;;;;11.76;63.24;93278.00;525905;28;904;-46
2023/10/16 01:17:47;;;;;;;1.90;1.33;;;;;;;11.80;63.37;93279.06;525912;28;1137;-46
2023/10/16 01:18:06;;;;;;;1.05;1.05;;;;;;;11.77;63.39;93273.94;526107;28;1146;-44
2023/10/16 01:18:21;;;;;;;1.20;1.10;;;;;;;11.83;63.10;93288.28;526306;28;916;-44
2023/10/16 01:18:37;;;;;;;1.20;1.10;;;;;;;11.82;63.42;93275.75;528334;28;793;-43
2023/10/16 01:18:52;;;;;;;0.95;0.95;;;;;;;11.85;63.41;93285.69;528406;28;793;-44
2023/10/16 01:19:10;;;;;;;0.97;0.80;;;;;;;11.87;63.15;93283.09;528231;28;857;-45
2023/10/16 01:19:27;;;;;;;1.85;0.85;;;;;;;11.92;63.15;93284.94;528365;28;960;-45
2023/10/16 01:19:47;;;;;;;1.38;0.85;;;;;;;11.95;63.10;93278.28;528359;28;817;-46
2023/10/16 01:20:03;;;;;;;1.00;0.90;;;;;;;11.74;62.66;93252.91;528304;28;896;-46
2023/10/16 01:20:21;;;;;;;1.05;0.98;;;;;;;11.97;62.99;93292.28;528249;28;1011;-46
2023/10/16 01:20:37;;;;;;;1.08;0.98;;;;;;;11.97;62.73;93292.28;528221;28;952;-42
2023/10/16 01:20:53;;;;;;;0.85;0.85;;;;;;;11.99;62.50;93293.19;528379;28;923;-44
2023/10/16 01:21:08;;;;;;;0.85;0.85;;;;;;;11.94;62.84;93288.59;528229;28;1193;-45
2023/10/16 01:21:24;;;;;;;1.50;1.20;;;;;;;11.91;62.65;93281.41;528363;28;789;-44
2023/10/16 01:21:39;;;;;;;3.90;1.10;;;;;;;11.92;62.64;93288.44;528199;28;835;-44
2023/10/16 01:21:58;;;;;;;3.27;0.90;;;;;;;11.92;62.59;93290.47;528241;28;979;-44
2023/10/16 01:22:14;;;;;;;3.28;0.90;;;;;;;11.92;62.79;93288.44;528275;28;901;-43
2023/10/16 01:22:30;;;;;;;3.47;0.90;;;;;;;11.93;62.39;93287.13;528320;28;817;-47
2023/10/16 01:22:47;;;;;;;1.10;0.98;;;;;;;11.96;62.51;93293.56;528308;28;817;-45
2023/10/16 01:23:04;;;;;;;1.23;0.95;;;;;;;11.97;62.57;93290.25;528280;28;885;-46
2023/10/16 01:23:23;;;;;;;1.90;1.00;;;;;;;11.98;62.53;93290.97;528190;28;959;-45
2023/10/16 01:23:40;;;;;;;1.70;1.00;;;;;;;11.99;62.41;93287.66;529262;27;1122;-44
2023/10/16 01:23:55;;;;;;;0.82;0.82;;;;;;;12.00;62.42;93285.63;529667;27;1144;-43
2023/10/16 01:24:13;;;;;;;1.20;0.82;;;;;;;12.00;62.02;93282.84;528297;28;809;-43
2023/10/16 01:24:31;;;;;;;1.20;0.90;;;;;;;12.04;62.38;93288.75;530197;27;1261;-43
2023/10/16 01:24:48;;;;;;;0.90;0.90;;;;;;;12.06;62.30;93292.41;530390;27;880;-43
2023/10/16 01:25:08;;;;;;;0.90;0.90;;;;;;;12.03;62.16;93288.00;530421;27;887;-44
2023/10/16 01:25:24;;;;;;;0.95;0.93;;;;;;;12.06;62.22;93292.41;530452;27;889;-46
2023/10/16 01:25:39;;;;;;;0.93;0.90;;;;;;;12.08;62.24;93283.56;530358;27;819;-45
2023/10/16 01:25:55;;;;;;;0.90;0.90;;;;;;;12.09;61.92;93290.53;530415;27;801;-45
2023/10/16 01:26:13;;;;;;;3.17;1.08;;;;;;;11.99;62.03;93279.38;530231;27;1110;-45
2023/10/16 01:26:29;;;;;;;3.00;1.00;;;;;;;11.93;62.48;93295.41;530414;27;868;-44